sensor_id;sensor_type;location;lat;lon;timestamp;temperature;humidity
1337;DHT22;662;48.814;9.318;2023-01-28T00:00:33;3.60;63.90
1337;DHT22;662;48.814;9.318;2023-01-28T00:02:59;3.60;63.90
1337;DHT22;662;48.814;9.318;2023-01-28T00:05:25;3.60;63.90
1337;DHT22;662;48.814;9.318;2023-01-28T00:07:51;3.60;63.90
1337;DHT22;662;48.814;9.318;2023-01-28T00:10:17;3.60;63.90
1337;DHT22;662;48.814;9.318;2023-01-28T00:12:43;3.60;63.90
1337;DHT22;662;48.814;9.318;2023-01-28T00:15:10;3.60;63.90
1337;DHT22;662;48.814;9.318;2023-01-28T00:17:36;3.60;63.90
1337;DHT22;662;48.814;9.318;2023-01-28T00:20:03;3.60;63.90
1337;DHT22;662;48.814;9.318;2023-01-28T00:22:29;3.60;63.90
1337;DHT22;662;48.814;9.318;2023-01-28T00:24:56;3.60;64.00
1337;DHT22;662;48.814;9.318;2023-01-28T00:27:21;3.60;63.90
1337;DHT22;662;48.814;9.318;2023-01-28T00:29:47;3.60;63.90
1337;DHT22;662;48.814;9.318;2023-01-28T00:32:13;3.60;64.00
1337;DHT22;662;48.814;9.318;2023-01-28T00:34:38;3.70;64.00
1337;DHT22;662;48.814;9.318;2023-01-28T00:37:04;3.70;64.00
1337;DHT22;662;48.814;9.318;2023-01-28T00:39:30;3.70;63.90
1337;DHT22;662;48.814;9.318;2023-01-28T00:41:56;3.70;63.90
1337;DHT22;662;48.814;9.318;2023-01-28T00:44:22;3.60;63.80
1337;DHT22;662;48.814;9.318;2023-01-28T00:46:48;3.70;63.90
1337;DHT22;662;48.814;9.318;2023-01-28T00:49:13;3.70;63.90
1337;DHT22;662;48.814;9.318;2023-01-28T00:51:39;3.70;63.90
1337;DHT22;662;48.814;9.318;2023-01-28T00:54:05;3.70;63.90
1337;DHT22;662;48.814;9.318;2023-01-28T00:56:30;3.70;64.70
1337;DHT22;662;48.814;9.318;2023-01-28T00:58:56;3.70;63.90
1337;DHT22;662;48.814;9.318;2023-01-28T01:01:24;3.70;63.90
1337;DHT22;662;48.814;9.318;2023-01-28T01:03:51;3.70;63.90
1337;DHT22;662;48.814;9.318;2023-01-28T01:06:23;3.70;63.80
1337;DHT22;662;48.814;9.318;2023-01-28T01:08:50;3.70;63.90
1337;DHT22;662;48.814;9.318;2023-01-28T01:11:16;3.70;64.00
1337;DHT22;662;48.814;9.318;2023-01-28T01:13:42;3.70;63.90
1337;DHT22;662;48.814;9.318;2023-01-28T01:16:10;3.70;64.00
1337;DHT22;662;48.814;9.318;2023-01-28T01:18:37;3.70;64.00
1337;DHT22;662;48.814;9.318;2023-01-28T01:21:17;3.70;64.00
1337;DHT22;662;48.814;9.318;2023-01-28T01:23:43;3.70;64.00
1337;DHT22;662;48.814;9.318;2023-01-28T01:26:09;3.70;64.00
1337;DHT22;662;48.814;9.318;2023-01-28T01:28:36;3.70;64.10
1337;DHT22;662;48.814;9.318;2023-01-28T01:31:12;3.70;64.10
1337;DHT22;662;48.814;9.318;2023-01-28T01:33:40;3.70;64.20
1337;DHT22;662;48.814;9.318;2023-01-28T01:36:06;3.60;64.10
1337;DHT22;662;48.814;9.318;2023-01-28T01:38:32;3.70;64.20
1337;DHT22;662;48.814;9.318;2023-01-28T01:40:59;3.70;64.20
1337;DHT22;662;48.814;9.318;2023-01-28T01:43:46;3.70;64.10
1337;DHT22;662;48.814;9.318;2023-01-28T01:46:12;3.70;64.10
1337;DHT22;662;48.814;9.318;2023-01-28T01:48:38;3.70;64.10
1337;DHT22;662;48.814;9.318;2023-01-28T01:51:11;3.70;64.10
1337;DHT22;662;48.814;9.318;2023-01-28T01:53:43;3.70;64.10
1337;DHT22;662;48.814;9.318;2023-01-28T01:56:11;3.70;64.10
1337;DHT22;662;48.814;9.318;2023-01-28T01:58:41;3.70;64.10
1337;DHT22;662;48.814;9.318;2023-01-28T02:01:07;3.70;64.20
1337;DHT22;662;48.814;9.318;2023-01-28T02:03:52;3.70;64.20
1337;DHT22;662;48.814;9.318;2023-01-28T02:06:21;3.70;64.20
1337;DHT22;662;48.814;9.318;2023-01-28T02:08:46;3.70;64.20
1337;DHT22;662;48.814;9.318;2023-01-28T02:11:13;3.70;64.20
1337;DHT22;662;48.814;9.318;2023-01-28T02:13:46;3.70;64.20
1337;DHT22;662;48.814;9.318;2023-01-28T02:16:13;3.70;64.20
1337;DHT22;662;48.814;9.318;2023-01-28T02:18:38;3.70;64.20
1337;DHT22;662;48.814;9.318;2023-01-28T02:24:18;3.70;64.30
1337;DHT22;662;48.814;9.318;2023-01-28T02:27:26;3.70;64.20
1337;DHT22;662;48.814;9.318;2023-01-28T02:30:03;3.70;64.30
1337;DHT22;662;48.814;9.318;2023-01-28T02:32:38;3.70;64.30
1337;DHT22;662;48.814;9.318;2023-01-28T02:38:03;3.70;64.40
1337;DHT22;662;48.814;9.318;2023-01-28T02:40:39;3.70;64.40
1337;DHT22;662;48.814;9.318;2023-01-28T02:43:44;3.80;64.50
1337;DHT22;662;48.814;9.318;2023-01-28T02:49:59;3.70;64.40
1337;DHT22;662;48.814;9.318;2023-01-28T02:55:05;3.80;64.60
1337;DHT22;662;48.814;9.318;2023-01-28T03:03:50;3.80;64.60
1337;DHT22;662;48.814;9.318;2023-01-28T03:06:20;3.80;64.80
1337;DHT22;662;48.814;9.318;2023-01-28T03:08:55;3.80;64.70
1337;DHT22;662;48.814;9.318;2023-01-28T03:11:45;3.80;64.70
1337;DHT22;662;48.814;9.318;2023-01-28T03:14:31;3.80;64.70
1337;DHT22;662;48.814;9.318;2023-01-28T03:20:21;3.80;64.80
1337;DHT22;662;48.814;9.318;2023-01-28T03:23:11;3.80;64.80
1337;DHT22;662;48.814;9.318;2023-01-28T03:25:58;3.80;64.80
1337;DHT22;662;48.814;9.318;2023-01-28T03:28:45;3.80;64.90
1337;DHT22;662;48.814;9.318;2023-01-28T03:31:32;3.70;64.90
1337;DHT22;662;48.814;9.318;2023-01-28T03:34:19;3.70;65.00
1337;DHT22;662;48.814;9.318;2023-01-28T03:37:04;3.70;65.10
1337;DHT22;662;48.814;9.318;2023-01-28T03:39:29;3.70;65.10
1337;DHT22;662;48.814;9.318;2023-01-28T03:42:01;3.70;65.20
1337;DHT22;662;48.814;9.318;2023-01-28T03:44:28;3.70;65.30
1337;DHT22;662;48.814;9.318;2023-01-28T03:47:12;3.80;65.40
1337;DHT22;662;48.814;9.318;2023-01-28T03:49:43;3.70;65.40
1337;DHT22;662;48.814;9.318;2023-01-28T03:52:11;3.70;65.50
1337;DHT22;662;48.814;9.318;2023-01-28T03:54:37;3.70;65.60
1337;DHT22;662;48.814;9.318;2023-01-28T03:57:03;3.70;65.70
1337;DHT22;662;48.814;9.318;2023-01-28T03:59:31;3.70;65.80
1337;DHT22;662;48.814;9.318;2023-01-28T04:01:56;3.70;65.90
1337;DHT22;662;48.814;9.318;2023-01-28T04:04:22;3.70;66.10
1337;DHT22;662;48.814;9.318;2023-01-28T04:06:53;3.70;66.20
1337;DHT22;662;48.814;9.318;2023-01-28T04:09:20;3.70;66.40
1337;DHT22;662;48.814;9.318;2023-01-28T04:11:46;3.60;67.20
1337;DHT22;662;48.814;9.318;2023-01-28T04:14:12;3.60;66.70
1337;DHT22;662;48.814;9.318;2023-01-28T04:16:38;3.70;66.90
1337;DHT22;662;48.814;9.318;2023-01-28T04:19:03;3.60;67.00
1337;DHT22;662;48.814;9.318;2023-01-28T04:21:29;3.60;67.00
1337;DHT22;662;48.814;9.318;2023-01-28T04:23:54;3.70;67.30
1337;DHT22;662;48.814;9.318;2023-01-28T04:26:20;3.70;67.30
1337;DHT22;662;48.814;9.318;2023-01-28T04:28:46;3.70;67.40
1337;DHT22;662;48.814;9.318;2023-01-28T04:31:11;3.70;67.40
1337;DHT22;662;48.814;9.318;2023-01-28T04:33:37;3.60;67.50
1337;DHT22;662;48.814;9.318;2023-01-28T04:36:03;3.70;67.70
1337;DHT22;662;48.814;9.318;2023-01-28T04:38:29;3.70;67.70
1337;DHT22;662;48.814;9.318;2023-01-28T04:40:54;3.70;67.90
1337;DHT22;662;48.814;9.318;2023-01-28T04:43:20;3.70;67.90
1337;DHT22;662;48.814;9.318;2023-01-28T04:45:46;3.70;68.00
1337;DHT22;662;48.814;9.318;2023-01-28T04:48:13;3.70;68.10
1337;DHT22;662;48.814;9.318;2023-01-28T04:50:39;3.70;68.10
1337;DHT22;662;48.814;9.318;2023-01-28T04:53:05;3.70;68.10
1337;DHT22;662;48.814;9.318;2023-01-28T04:55:31;3.70;68.20
1337;DHT22;662;48.814;9.318;2023-01-28T04:57:56;3.70;68.30
1337;DHT22;662;48.814;9.318;2023-01-28T05:00:22;3.70;68.30
1337;DHT22;662;48.814;9.318;2023-01-28T05:02:47;3.60;68.30
1337;DHT22;662;48.814;9.318;2023-01-28T05:05:13;3.60;68.40
1337;DHT22;662;48.814;9.318;2023-01-28T05:07:39;3.60;68.40
1337;DHT22;662;48.814;9.318;2023-01-28T05:10:05;3.60;68.60
1337;DHT22;662;48.814;9.318;2023-01-28T05:12:31;3.60;68.60
1337;DHT22;662;48.814;9.318;2023-01-28T05:14:58;3.70;68.80
1337;DHT22;662;48.814;9.318;2023-01-28T05:17:27;3.70;68.90
1337;DHT22;662;48.814;9.318;2023-01-28T05:19:53;3.70;69.00
1337;DHT22;662;48.814;9.318;2023-01-28T05:22:19;3.70;69.00
1337;DHT22;662;48.814;9.318;2023-01-28T05:24:44;3.70;69.10
1337;DHT22;662;48.814;9.318;2023-01-28T05:27:10;3.70;69.10
1337;DHT22;662;48.814;9.318;2023-01-28T05:29:35;3.70;69.10
1337;DHT22;662;48.814;9.318;2023-01-28T05:32:01;3.70;69.10
1337;DHT22;662;48.814;9.318;2023-01-28T05:34:27;3.70;69.10
1337;DHT22;662;48.814;9.318;2023-01-28T05:36:52;3.70;69.10
1337;DHT22;662;48.814;9.318;2023-01-28T05:39:18;3.70;69.20
1337;DHT22;662;48.814;9.318;2023-01-28T05:41:44;3.60;69.20
1337;DHT22;662;48.814;9.318;2023-01-28T05:44:09;3.60;69.30
1337;DHT22;662;48.814;9.318;2023-01-28T05:46:35;3.60;70.00
1337;DHT22;662;48.814;9.318;2023-01-28T05:49:00;3.60;69.40
1337;DHT22;662;48.814;9.318;2023-01-28T05:51:26;3.60;69.40
1337;DHT22;662;48.814;9.318;2023-01-28T05:53:52;3.70;69.50
1337;DHT22;662;48.814;9.318;2023-01-28T05:56:17;3.70;69.50
1337;DHT22;662;48.814;9.318;2023-01-28T05:58:43;3.70;69.50
1337;DHT22;662;48.814;9.318;2023-01-28T06:01:08;3.70;69.40
1337;DHT22;662;48.814;9.318;2023-01-28T06:03:34;3.70;69.40
1337;DHT22;662;48.814;9.318;2023-01-28T06:06:00;3.70;69.30
1337;DHT22;662;48.814;9.318;2023-01-28T06:08:26;3.70;69.30
1337;DHT22;662;48.814;9.318;2023-01-28T06:10:51;3.80;69.40
1337;DHT22;662;48.814;9.318;2023-01-28T06:13:17;3.80;69.40
1337;DHT22;662;48.814;9.318;2023-01-28T06:15:42;3.80;69.30
1337;DHT22;662;48.814;9.318;2023-01-28T06:18:08;3.80;69.40
1337;DHT22;662;48.814;9.318;2023-01-28T06:20:34;3.80;69.30
1337;DHT22;662;48.814;9.318;2023-01-28T06:22:59;3.80;69.30
1337;DHT22;662;48.814;9.318;2023-01-28T06:25:25;3.80;69.20
1337;DHT22;662;48.814;9.318;2023-01-28T06:27:50;3.80;69.30
1337;DHT22;662;48.814;9.318;2023-01-28T06:30:16;3.80;69.30
1337;DHT22;662;48.814;9.318;2023-01-28T06:32:42;3.90;69.40
1337;DHT22;662;48.814;9.318;2023-01-28T06:35:09;3.90;69.40
1337;DHT22;662;48.814;9.318;2023-01-28T06:37:35;3.80;69.20
1337;DHT22;662;48.814;9.318;2023-01-28T06:40:01;3.80;69.20
1337;DHT22;662;48.814;9.318;2023-01-28T06:42:26;3.90;69.30
1337;DHT22;662;48.814;9.318;2023-01-28T06:44:52;3.80;69.20
1337;DHT22;662;48.814;9.318;2023-01-28T06:47:18;3.90;69.30
1337;DHT22;662;48.814;9.318;2023-01-28T06:49:43;3.90;69.30
1337;DHT22;662;48.814;9.318;2023-01-28T06:52:09;3.90;69.30
1337;DHT22;662;48.814;9.318;2023-01-28T06:54:34;3.90;69.30
1337;DHT22;662;48.814;9.318;2023-01-28T06:57:00;3.90;69.30
1337;DHT22;662;48.814;9.318;2023-01-28T06:59:26;3.90;69.20
1337;DHT22;662;48.814;9.318;2023-01-28T07:01:51;3.90;69.30
1337;DHT22;662;48.814;9.318;2023-01-28T07:04:17;3.90;69.30
1337;DHT22;662;48.814;9.318;2023-01-28T07:06:42;3.90;69.30
1337;DHT22;662;48.814;9.318;2023-01-28T07:09:08;3.90;69.20
1337;DHT22;662;48.814;9.318;2023-01-28T07:11:34;4.00;69.30
1337;DHT22;662;48.814;9.318;2023-01-28T07:13:59;4.00;69.30
1337;DHT22;662;48.814;9.318;2023-01-28T07:16:25;4.00;69.30
1337;DHT22;662;48.814;9.318;2023-01-28T07:18:51;4.00;69.30
1337;DHT22;662;48.814;9.318;2023-01-28T07:21:16;4.00;69.20
1337;DHT22;662;48.814;9.318;2023-01-28T07:23:42;4.00;69.20
1337;DHT22;662;48.814;9.318;2023-01-28T07:26:08;4.00;69.20
1337;DHT22;662;48.814;9.318;2023-01-28T07:28:33;4.00;69.20
1337;DHT22;662;48.814;9.318;2023-01-28T07:30:59;4.00;69.30
1337;DHT22;662;48.814;9.318;2023-01-28T07:33:24;4.00;69.20
1337;DHT22;662;48.814;9.318;2023-01-28T07:35:50;4.00;69.20
1337;DHT22;662;48.814;9.318;2023-01-28T07:38:16;4.00;69.10
1337;DHT22;662;48.814;9.318;2023-01-28T07:40:41;4.00;69.10
1337;DHT22;662;48.814;9.318;2023-01-28T07:43:08;4.00;69.10
1337;DHT22;662;48.814;9.318;2023-01-28T07:45:34;4.00;69.10
1337;DHT22;662;48.814;9.318;2023-01-28T07:48:02;4.00;69.10
1337;DHT22;662;48.814;9.318;2023-01-28T07:50:30;4.10;69.30
1337;DHT22;662;48.814;9.318;2023-01-28T07:52:57;4.10;69.20
1337;DHT22;662;48.814;9.318;2023-01-28T07:55:23;4.10;69.20
1337;DHT22;662;48.814;9.318;2023-01-28T08:00:18;4.10;69.20
1337;DHT22;662;48.814;9.318;2023-01-28T08:02:44;4.20;69.30
1337;DHT22;662;48.814;9.318;2023-01-28T08:05:19;4.20;69.30
1337;DHT22;662;48.814;9.318;2023-01-28T08:07:46;4.20;69.20
1337;DHT22;662;48.814;9.318;2023-01-28T08:10:13;4.20;69.20
1337;DHT22;662;48.814;9.318;2023-01-28T08:12:39;4.20;69.10
1337;DHT22;662;48.814;9.318;2023-01-28T08:15:06;4.30;69.20
1337;DHT22;662;48.814;9.318;2023-01-28T08:17:32;4.30;69.20
1337;DHT22;662;48.814;9.318;2023-01-28T08:19:57;4.30;69.10
1337;DHT22;662;48.814;9.318;2023-01-28T08:22:26;4.30;69.10
1337;DHT22;662;48.814;9.318;2023-01-28T08:24:52;4.40;69.10
1337;DHT22;662;48.814;9.318;2023-01-28T08:27:18;4.40;69.10
1337;DHT22;662;48.814;9.318;2023-01-28T08:29:43;4.40;68.90
1337;DHT22;662;48.814;9.318;2023-01-28T08:32:09;4.50;68.90
1337;DHT22;662;48.814;9.318;2023-01-28T08:34:35;4.60;69.00
1337;DHT22;662;48.814;9.318;2023-01-28T08:37:01;4.60;68.80
1337;DHT22;662;48.814;9.318;2023-01-28T08:39:26;4.60;68.70
1337;DHT22;662;48.814;9.318;2023-01-28T08:41:52;4.70;68.70
1337;DHT22;662;48.814;9.318;2023-01-28T08:44:18;4.70;68.60
1337;DHT22;662;48.814;9.318;2023-01-28T08:46:43;4.70;68.50
1337;DHT22;662;48.814;9.318;2023-01-28T08:49:09;4.80;68.50
1337;DHT22;662;48.814;9.318;2023-01-28T08:51:34;4.80;68.40
1337;DHT22;662;48.814;9.318;2023-01-28T08:54:00;4.90;68.30
1337;DHT22;662;48.814;9.318;2023-01-28T08:56:26;4.90;68.10
1337;DHT22;662;48.814;9.318;2023-01-28T08:58:52;4.90;68.10
1337;DHT22;662;48.814;9.318;2023-01-28T09:01:17;4.90;67.90
1337;DHT22;662;48.814;9.318;2023-01-28T09:03:43;5.00;68.00
1337;DHT22;662;48.814;9.318;2023-01-28T09:06:08;5.00;67.80
1337;DHT22;662;48.814;9.318;2023-01-28T09:08:34;5.00;67.70
1337;DHT22;662;48.814;9.318;2023-01-28T09:11:00;5.10;67.60
1337;DHT22;662;48.814;9.318;2023-01-28T09:13:28;5.20;67.70
1337;DHT22;662;48.814;9.318;2023-01-28T09:15:55;5.20;67.50
1337;DHT22;662;48.814;9.318;2023-01-28T09:18:20;5.30;67.40
1337;DHT22;662;48.814;9.318;2023-01-28T09:20:46;5.30;67.30
1337;DHT22;662;48.814;9.318;2023-01-28T09:23:12;5.30;67.00
1337;DHT22;662;48.814;9.318;2023-01-28T09:25:38;5.40;67.00
1337;DHT22;662;48.814;9.318;2023-01-28T09:28:04;5.40;66.70
1337;DHT22;662;48.814;9.318;2023-01-28T09:30:30;5.40;66.60
1337;DHT22;662;48.814;9.318;2023-01-28T09:32:56;5.50;66.50
1337;DHT22;662;48.814;9.318;2023-01-28T09:35:23;5.50;66.20
1337;DHT22;662;48.814;9.318;2023-01-28T09:37:49;5.50;66.10
1337;DHT22;662;48.814;9.318;2023-01-28T09:40:19;5.50;65.80
1337;DHT22;662;48.814;9.318;2023-01-28T09:45:47;5.60;65.50
1337;DHT22;662;48.814;9.318;2023-01-28T09:48:30;5.60;66.00
1337;DHT22;662;48.814;9.318;2023-01-28T09:50:59;5.60;65.10
1337;DHT22;662;48.814;9.318;2023-01-28T09:53:34;5.70;65.10
1337;DHT22;662;48.814;9.318;2023-01-28T09:56:08;5.70;64.90
1337;DHT22;662;48.814;9.318;2023-01-28T09:58:35;5.60;64.70
1337;DHT22;662;48.814;9.318;2023-01-28T10:14:39;5.40;64.60
1337;DHT22;662;48.814;9.318;2023-01-28T10:17:12;5.30;64.50
1337;DHT22;662;48.814;9.318;2023-01-28T10:19:49;5.30;64.60
1337;DHT22;662;48.814;9.318;2023-01-28T10:22:29;5.30;64.70
1337;DHT22;662;48.814;9.318;2023-01-28T10:24:59;5.20;64.70
1337;DHT22;662;48.814;9.318;2023-01-28T10:27:30;5.20;64.80
1337;DHT22;662;48.814;9.318;2023-01-28T10:29:59;5.20;64.80
1337;DHT22;662;48.814;9.318;2023-01-28T10:32:40;5.20;64.90
1337;DHT22;662;48.814;9.318;2023-01-28T10:35:08;5.20;65.00
1337;DHT22;662;48.814;9.318;2023-01-28T10:37:36;5.20;65.00
1337;DHT22;662;48.814;9.318;2023-01-28T10:40:04;5.10;64.80
1337;DHT22;662;48.814;9.318;2023-01-28T10:42:34;5.20;65.00
1337;DHT22;662;48.814;9.318;2023-01-28T10:45:36;5.20;65.00
1337;DHT22;662;48.814;9.318;2023-01-28T10:48:11;5.10;64.90
1337;DHT22;662;48.814;9.318;2023-01-28T10:50:58;5.10;64.90
1337;DHT22;662;48.814;9.318;2023-01-28T10:53:43;5.10;65.00
1337;DHT22;662;48.814;9.318;2023-01-28T10:56:17;5.20;65.10
1337;DHT22;662;48.814;9.318;2023-01-28T10:59:00;5.20;65.00
1337;DHT22;662;48.814;9.318;2023-01-28T11:01:43;5.20;65.00
1337;DHT22;662;48.814;9.318;2023-01-28T11:04:18;5.20;65.00
1337;DHT22;662;48.814;9.318;2023-01-28T11:07:02;5.20;64.90
1337;DHT22;662;48.814;9.318;2023-01-28T11:09:28;5.20;64.80
1337;DHT22;662;48.814;9.318;2023-01-28T11:11:56;5.20;64.80
1337;DHT22;662;48.814;9.318;2023-01-28T11:14:25;5.20;64.80
1337;DHT22;662;48.814;9.318;2023-01-28T11:16:53;5.20;64.70
1337;DHT22;662;48.814;9.318;2023-01-28T11:19:24;5.20;64.60
1337;DHT22;662;48.814;9.318;2023-01-28T11:21:54;5.20;64.60
1337;DHT22;662;48.814;9.318;2023-01-28T11:24:24;5.10;64.40
1337;DHT22;662;48.814;9.318;2023-01-28T11:26:53;5.10;64.30
1337;DHT22;662;48.814;9.318;2023-01-28T11:29:32;5.20;64.40
1337;DHT22;662;48.814;9.318;2023-01-28T11:31:59;5.10;64.20
1337;DHT22;662;48.814;9.318;2023-01-28T11:34:33;5.20;64.30
1337;DHT22;662;48.814;9.318;2023-01-28T11:37:11;5.20;64.30
1337;DHT22;662;48.814;9.318;2023-01-28T11:39:37;5.20;64.30
1337;DHT22;662;48.814;9.318;2023-01-28T11:42:12;5.20;64.30
1337;DHT22;662;48.814;9.318;2023-01-28T11:44:40;5.20;64.40
1337;DHT22;662;48.814;9.318;2023-01-28T11:47:41;5.20;64.40
1337;DHT22;662;48.814;9.318;2023-01-28T11:53:23;5.20;64.40
1337;DHT22;662;48.814;9.318;2023-01-28T11:56:18;5.30;64.50
1337;DHT22;662;48.814;9.318;2023-01-28T12:04:52;5.30;64.30
1337;DHT22;662;48.814;9.318;2023-01-28T12:07:55;5.30;64.30
1337;DHT22;662;48.814;9.318;2023-01-28T12:10:42;5.20;64.20
1337;DHT22;662;48.814;9.318;2023-01-28T12:13:13;5.30;64.40
1337;DHT22;662;48.814;9.318;2023-01-28T12:21:52;5.30;64.40
1337;DHT22;662;48.814;9.318;2023-01-28T12:24:41;5.20;64.30
1337;DHT22;662;48.814;9.318;2023-01-28T12:46:38;5.20;64.80
1337;DHT22;662;48.814;9.318;2023-01-28T12:54:28;5.30;64.80
1337;DHT22;662;48.814;9.318;2023-01-28T12:56:55;5.30;64.80
1337;DHT22;662;48.814;9.318;2023-01-28T12:59:41;5.30;64.90
1337;DHT22;662;48.814;9.318;2023-01-28T13:04:41;5.40;65.00
1337;DHT22;662;48.814;9.318;2023-01-28T13:07:43;5.30;64.90
1337;DHT22;662;48.814;9.318;2023-01-28T13:10:33;5.30;65.00
1337;DHT22;662;48.814;9.318;2023-01-28T13:13:02;5.30;65.20
1337;DHT22;662;48.814;9.318;2023-01-28T13:15:28;5.30;65.50
1337;DHT22;662;48.814;9.318;2023-01-28T13:17:58;5.20;65.70
1337;DHT22;662;48.814;9.318;2023-01-28T13:20:46;5.20;66.00
1337;DHT22;662;48.814;9.318;2023-01-28T13:23:38;5.10;66.30
1337;DHT22;662;48.814;9.318;2023-01-28T13:28:45;4.90;67.00
1337;DHT22;662;48.814;9.318;2023-01-28T13:31:14;4.90;67.30
1337;DHT22;662;48.814;9.318;2023-01-28T13:33:47;4.90;67.50
1337;DHT22;662;48.814;9.318;2023-01-28T13:39:00;4.90;67.90
1337;DHT22;662;48.814;9.318;2023-01-28T13:44:39;4.90;68.00
1337;DHT22;662;48.814;9.318;2023-01-28T13:47:14;4.90;68.20
1337;DHT22;662;48.814;9.318;2023-01-28T13:49:41;4.90;68.20
1337;DHT22;662;48.814;9.318;2023-01-28T13:54:56;4.90;68.20
1337;DHT22;662;48.814;9.318;2023-01-28T14:00:42;4.90;68.10
1337;DHT22;662;48.814;9.318;2023-01-28T14:06:20;4.90;67.70
1337;DHT22;662;48.814;9.318;2023-01-28T14:17:00;5.10;67.30
1337;DHT22;662;48.814;9.318;2023-01-28T14:19:33;5.20;67.10
1337;DHT22;662;48.814;9.318;2023-01-28T14:22:08;5.20;66.60
1337;DHT22;662;48.814;9.318;2023-01-28T14:24:36;5.20;66.30
1337;DHT22;662;48.814;9.318;2023-01-28T14:32:15;5.20;65.80
1337;DHT22;662;48.814;9.318;2023-01-28T14:34:42;5.20;65.50
1337;DHT22;662;48.814;9.318;2023-01-28T14:37:20;5.20;65.30
1337;DHT22;662;48.814;9.318;2023-01-28T14:39:53;5.20;65.30
1337;DHT22;662;48.814;9.318;2023-01-28T14:42:29;5.20;65.30
1337;DHT22;662;48.814;9.318;2023-01-28T14:45:33;5.20;65.30
1337;DHT22;662;48.814;9.318;2023-01-28T14:54:21;5.20;64.90
1337;DHT22;662;48.814;9.318;2023-01-28T14:57:01;5.20;64.90
1337;DHT22;662;48.814;9.318;2023-01-28T14:59:55;5.10;64.70
1337;DHT22;662;48.814;9.318;2023-01-28T15:02:28;5.10;64.60
1337;DHT22;662;48.814;9.318;2023-01-28T15:04:54;5.10;64.60
1337;DHT22;662;48.814;9.318;2023-01-28T15:07:26;5.10;64.60
1337;DHT22;662;48.814;9.318;2023-01-28T15:10:00;5.10;64.70
1337;DHT22;662;48.814;9.318;2023-01-28T15:12:26;5.10;64.60
1337;DHT22;662;48.814;9.318;2023-01-28T15:14:52;5.10;64.70
1337;DHT22;662;48.814;9.318;2023-01-28T15:17:24;5.10;64.70
1337;DHT22;662;48.814;9.318;2023-01-28T15:19:54;5.10;64.70
1337;DHT22;662;48.814;9.318;2023-01-28T15:22:25;5.10;64.60
1337;DHT22;662;48.814;9.318;2023-01-28T15:24:51;5.00;64.60
1337;DHT22;662;48.814;9.318;2023-01-28T15:27:27;5.00;64.50
1337;DHT22;662;48.814;9.318;2023-01-28T15:29:56;5.00;64.50
1337;DHT22;662;48.814;9.318;2023-01-28T15:32:29;5.00;64.50
1337;DHT22;662;48.814;9.318;2023-01-28T15:34:58;4.90;64.40
1337;DHT22;662;48.814;9.318;2023-01-28T15:37:27;4.90;64.40
1337;DHT22;662;48.814;9.318;2023-01-28T15:40:03;4.80;64.40
1337;DHT22;662;48.814;9.318;2023-01-28T15:42:30;4.80;64.30
1337;DHT22;662;48.814;9.318;2023-01-28T15:44:56;4.80;64.40
1337;DHT22;662;48.814;9.318;2023-01-28T15:47:29;4.80;64.50
1337;DHT22;662;48.814;9.318;2023-01-28T15:50:00;4.80;64.50
1337;DHT22;662;48.814;9.318;2023-01-28T15:52:33;4.80;64.60
1337;DHT22;662;48.814;9.318;2023-01-28T15:54:59;4.70;64.50
1337;DHT22;662;48.814;9.318;2023-01-28T15:57:29;4.70;64.40
1337;DHT22;662;48.814;9.318;2023-01-28T16:00:13;4.70;64.40
1337;DHT22;662;48.814;9.318;2023-01-28T16:02:47;4.70;64.40
1337;DHT22;662;48.814;9.318;2023-01-28T16:05:33;4.70;64.50
1337;DHT22;662;48.814;9.318;2023-01-28T16:08:17;4.70;64.50
1337;DHT22;662;48.814;9.318;2023-01-28T16:10:55;4.70;64.50
1337;DHT22;662;48.814;9.318;2023-01-28T16:13:26;4.70;64.50
1337;DHT22;662;48.814;9.318;2023-01-28T16:15:54;4.70;64.50
1337;DHT22;662;48.814;9.318;2023-01-28T16:18:42;4.70;64.50
1337;DHT22;662;48.814;9.318;2023-01-28T16:21:19;4.70;64.50
1337;DHT22;662;48.814;9.318;2023-01-28T16:24:01;4.70;64.40
1337;DHT22;662;48.814;9.318;2023-01-28T16:26:29;4.70;64.40
1337;DHT22;662;48.814;9.318;2023-01-28T16:28:55;4.70;64.30
1337;DHT22;662;48.814;9.318;2023-01-28T16:31:21;4.70;64.30
1337;DHT22;662;48.814;9.318;2023-01-28T16:33:46;4.70;64.30
1337;DHT22;662;48.814;9.318;2023-01-28T16:36:14;4.70;64.30
1337;DHT22;662;48.814;9.318;2023-01-28T16:38:40;4.70;64.20
1337;DHT22;662;48.814;9.318;2023-01-28T16:41:23;4.70;64.30
1337;DHT22;662;48.814;9.318;2023-01-28T16:43:49;4.70;64.30
1337;DHT22;662;48.814;9.318;2023-01-28T16:46:14;4.70;64.30
1337;DHT22;662;48.814;9.318;2023-01-28T16:48:40;4.70;64.30
1337;DHT22;662;48.814;9.318;2023-01-28T16:51:08;4.70;64.20
1337;DHT22;662;48.814;9.318;2023-01-28T16:53:38;4.70;64.20
1337;DHT22;662;48.814;9.318;2023-01-28T16:56:04;4.70;64.20
1337;DHT22;662;48.814;9.318;2023-01-28T16:58:30;4.70;64.20
1337;DHT22;662;48.814;9.318;2023-01-28T17:00:56;4.70;64.30
1337;DHT22;662;48.814;9.318;2023-01-28T17:03:22;4.70;64.30
1337;DHT22;662;48.814;9.318;2023-01-28T17:05:48;4.70;64.20
1337;DHT22;662;48.814;9.318;2023-01-28T17:08:13;4.70;64.30
1337;DHT22;662;48.814;9.318;2023-01-28T17:10:39;4.70;64.20
1337;DHT22;662;48.814;9.318;2023-01-28T17:13:05;4.70;64.20
1337;DHT22;662;48.814;9.318;2023-01-28T17:15:30;4.70;64.20
1337;DHT22;662;48.814;9.318;2023-01-28T17:17:58;4.70;64.00
1337;DHT22;662;48.814;9.318;2023-01-28T17:20:24;4.60;63.90
1337;DHT22;662;48.814;9.318;2023-01-28T17:22:49;4.60;63.80
1337;DHT22;662;48.814;9.318;2023-01-28T17:25:15;4.60;63.80
1337;DHT22;662;48.814;9.318;2023-01-28T17:27:40;4.60;63.70
1337;DHT22;662;48.814;9.318;2023-01-28T17:30:06;4.60;63.70
1337;DHT22;662;48.814;9.318;2023-01-28T17:32:32;4.60;63.60
1337;DHT22;662;48.814;9.318;2023-01-28T17:34:58;4.60;63.60
1337;DHT22;662;48.814;9.318;2023-01-28T17:37:24;4.60;64.30
1337;DHT22;662;48.814;9.318;2023-01-28T17:39:49;4.60;63.50
1337;DHT22;662;48.814;9.318;2023-01-28T17:42:15;4.60;63.50
1337;DHT22;662;48.814;9.318;2023-01-28T17:44:41;4.60;63.50
1337;DHT22;662;48.814;9.318;2023-01-28T17:47:07;4.60;63.50
1337;DHT22;662;48.814;9.318;2023-01-28T17:49:34;4.60;63.50
1337;DHT22;662;48.814;9.318;2023-01-28T17:52:00;4.60;63.40
1337;DHT22;662;48.814;9.318;2023-01-28T17:54:25;4.60;63.40
1337;DHT22;662;48.814;9.318;2023-01-28T17:56:51;4.60;63.50
1337;DHT22;662;48.814;9.318;2023-01-28T17:59:17;4.60;63.50
1337;DHT22;662;48.814;9.318;2023-01-28T18:01:43;4.60;63.40
1337;DHT22;662;48.814;9.318;2023-01-28T18:04:09;4.60;63.40
1337;DHT22;662;48.814;9.318;2023-01-28T18:06:35;4.60;63.40
1337;DHT22;662;48.814;9.318;2023-01-28T18:09:02;4.60;63.40
1337;DHT22;662;48.814;9.318;2023-01-28T18:11:28;4.60;63.30
1337;DHT22;662;48.814;9.318;2023-01-28T18:13:55;4.60;63.30
1337;DHT22;662;48.814;9.318;2023-01-28T18:16:20;4.60;63.40
1337;DHT22;662;48.814;9.318;2023-01-28T18:18:48;4.60;63.40
1337;DHT22;662;48.814;9.318;2023-01-28T18:21:29;4.60;63.40
1337;DHT22;662;48.814;9.318;2023-01-28T18:23:57;4.50;63.40
1337;DHT22;662;48.814;9.318;2023-01-28T18:26:22;4.50;63.40
1337;DHT22;662;48.814;9.318;2023-01-28T18:28:48;4.50;63.50
1337;DHT22;662;48.814;9.318;2023-01-28T18:31:14;4.50;63.50
1337;DHT22;662;48.814;9.318;2023-01-28T18:33:40;4.50;63.50
1337;DHT22;662;48.814;9.318;2023-01-28T18:36:06;4.40;63.50
1337;DHT22;662;48.814;9.318;2023-01-28T18:38:33;4.40;63.50
1337;DHT22;662;48.814;9.318;2023-01-28T18:40:59;4.40;63.60
1337;DHT22;662;48.814;9.318;2023-01-28T18:43:26;4.40;63.60
1337;DHT22;662;48.814;9.318;2023-01-28T18:45:53;4.40;63.60
1337;DHT22;662;48.814;9.318;2023-01-28T18:48:18;4.40;63.60
1337;DHT22;662;48.814;9.318;2023-01-28T18:50:52;4.30;63.60